createdAt,value
2019-02-02T00:00:37.547Z,1.00
2019-02-02T00:05:37.250Z,0.90
2019-02-02T00:10:36.462Z,1.00
2019-02-02T00:15:35.547Z,1.10
2019-02-02T00:20:35.012Z,1.20
2019-02-02T00:23:04.996Z,1.10
2019-02-02T00:25:34.987Z,1.10
2019-02-02T00:28:04.770Z,1.20
2019-02-02T00:30:34.479Z,1.20
2019-02-02T00:33:04.366Z,1.20
2019-02-02T00:35:35.392Z,1.10
2019-02-02T00:38:05.511Z,1.40
2019-02-02T00:40:39.669Z,2.50
2019-02-02T00:43:09.402Z,1.40
2019-02-02T00:45:41.471Z,1.40
2019-02-02T00:48:11.188Z,1.30
2019-02-02T00:50:47.945Z,1.30
2019-02-02T00:53:17.943Z,1.40
2019-02-02T00:55:49.748Z,2.30
2019-02-02T00:58:19.456Z,1.50
2019-02-02T01:00:49.606Z,1.20
2019-02-02T01:03:19.395Z,1.50
2019-02-02T01:05:53.368Z,1.50
2019-02-02T01:08:23.523Z,1.40
2019-02-02T01:13:26.228Z,1.50
2019-02-02T01:16:00.269Z,1.40
2019-02-02T01:18:29.939Z,1.50
2019-02-02T01:21:05.982Z,1.50
2019-02-02T01:23:35.669Z,1.50
2019-02-02T01:26:06.860Z,1.50
2019-02-02T01:28:36.959Z,1.50
2019-02-02T01:33:42.688Z,1.60
2019-02-02T01:36:14.299Z,1.60
2019-02-02T01:38:45.041Z,1.50
2019-02-02T01:41:17.547Z,1.60
2019-02-02T01:43:48.503Z,1.60
2019-02-02T01:46:19.581Z,1.60
2019-02-02T01:51:21.468Z,1.80
2019-02-02T01:53:51.195Z,1.90
2019-02-02T01:56:25.032Z,2.10
2019-02-02T01:58:55.010Z,1.80
2019-02-02T02:01:26.766Z,1.70
2019-02-02T02:03:56.460Z,1.70
2019-02-02T02:08:58.357Z,1.70
2019-02-02T02:11:33.475Z,1.90
2019-02-02T02:14:03.265Z,2.00
2019-02-02T02:19:02.567Z,2.10
2019-02-02T02:21:36.038Z,2.10
2019-02-02T02:24:06.240Z,2.10
2019-02-02T02:26:40.081Z,2.20
2019-02-02T02:29:09.787Z,2.20
2019-02-02T02:31:45.832Z,2.00
2019-02-02T02:34:15.507Z,1.90
2019-02-02T02:39:14.582Z,1.80
2019-02-02T02:41:48.063Z,1.70
2019-02-02T02:44:17.763Z,1.80
2019-02-02T02:46:50.455Z,1.60
2019-02-02T02:51:53.375Z,2.10
2019-02-02T02:54:23.464Z,2.00
2019-02-02T02:56:57.234Z,2.00
2019-02-02T02:59:26.955Z,2.00
2019-02-02T03:02:02.864Z,1.90
2019-02-02T03:04:32.594Z,1.80
2019-02-02T03:07:05.569Z,2.90
2019-02-02T03:12:07.327Z,1.60
2019-02-02T03:14:37.000Z,1.60
2019-02-02T03:17:14.252Z,1.50
2019-02-02T03:19:43.933Z,1.60
2019-02-02T03:22:14.900Z,1.60
2019-02-02T03:24:46.302Z,1.60
2019-02-02T03:27:19.015Z,1.60
2019-02-02T03:32:21.015Z,1.60
2019-02-02T03:34:50.735Z,1.70
2019-02-02T03:37:21.838Z,1.50
2019-02-02T03:39:51.608Z,1.60
2019-02-02T03:42:25.138Z,1.60
2019-02-02T03:44:55.406Z,1.60
2019-02-02T03:47:28.262Z,1.60
2019-02-02T03:49:57.976Z,1.60
2019-02-02T03:52:31.166Z,1.50
2019-02-02T03:55:01.729Z,1.60
2019-02-02T03:57:32.660Z,1.60
2019-02-02T04:02:34.875Z,1.60
2019-02-02T04:05:05.464Z,1.60
2019-02-02T04:12:41.139Z,1.60
2019-02-02T04:17:44.201Z,1.80
2019-02-02T04:20:18.974Z,1.70
2019-02-02T04:25:19.059Z,1.70
2019-02-02T04:30:23.069Z,1.70
2019-02-02T04:32:53.447Z,1.70
2019-02-02T04:35:23.352Z,1.80
2019-02-02T04:37:55.462Z,1.70
2019-02-02T04:40:25.612Z,1.70
2019-02-02T04:45:30.515Z,1.70
2019-02-02T04:48:03.012Z,1.80
2019-02-02T04:50:32.698Z,1.70
2019-02-02T04:53:04.928Z,1.70
2019-02-02T04:55:34.600Z,1.80
2019-02-02T04:58:07.604Z,1.70
2019-02-02T05:00:37.693Z,1.80
2019-02-02T05:03:10.617Z,1.80
2019-02-02T05:05:40.285Z,1.80
2019-02-02T05:08:14.075Z,1.80
2019-02-02T05:13:17.871Z,1.70
2019-02-02T05:15:47.553Z,1.70
2019-02-02T05:18:20.381Z,1.70
2019-02-02T05:20:50.088Z,1.00
2019-02-02T05:23:22.919Z,1.60
2019-02-02T05:25:53.346Z,1.60
2019-02-02T05:28:26.152Z,2.40
2019-02-02T05:30:56.043Z,1.60
2019-02-02T05:33:29.344Z,1.60
2019-02-02T05:35:59.276Z,1.70
2019-02-02T05:38:30.502Z,1.80
2019-02-02T05:41:00.948Z,1.80
2019-02-02T05:46:00.803Z,1.70
2019-02-02T05:48:38.491Z,1.70
2019-02-02T05:53:37.909Z,1.60
2019-02-02T05:56:07.905Z,1.70
2019-02-02T05:58:43.584Z,1.70
2019-02-02T06:01:18.099Z,1.70
2019-02-02T06:03:48.007Z,1.60
2019-02-02T06:06:17.832Z,1.60
2019-02-02T06:08:47.666Z,1.60
2019-02-02T06:11:17.364Z,1.60
2019-02-02T06:13:49.381Z,1.50
2019-02-02T06:16:19.113Z,1.60
2019-02-02T06:21:21.221Z,1.60
2019-02-02T06:23:55.550Z,1.70
2019-02-02T06:26:25.855Z,1.70
2019-02-02T06:31:36.835Z,1.70
2019-02-02T06:34:06.607Z,1.70
2019-02-02T06:36:36.332Z,1.80
2019-02-02T06:39:08.279Z,1.80
2019-02-02T06:41:37.996Z,1.80
2019-02-02T06:44:09.220Z,1.90
2019-02-02T06:46:43.692Z,1.90
2019-02-02T06:49:13.184Z,1.80
2019-02-02T06:51:42.854Z,1.80
2019-02-02T06:54:17.931Z,1.70
2019-02-02T06:56:48.175Z,1.80
2019-02-02T06:59:17.903Z,1.80
2019-02-02T07:01:47.623Z,1.80
2019-02-02T07:04:20.921Z,1.80
2019-02-02T07:06:50.632Z,1.80
2019-02-02T07:09:23.043Z,1.70
2019-02-02T07:11:53.110Z,1.80
2019-02-02T07:14:25.769Z,1.80
2019-02-02T07:19:30.885Z,1.90
2019-02-02T07:22:00.679Z,1.90
2019-02-02T07:24:30.491Z,2.00
2019-02-02T07:27:00.712Z,3.00
2019-02-02T07:29:36.512Z,3.80
2019-02-02T07:32:06.874Z,1.90
2019-02-02T07:37:05.670Z,1.90
2019-02-02T07:47:11.537Z,1.80
2019-02-02T07:49:46.037Z,1.90
2019-02-02T07:54:49.299Z,1.90
2019-02-02T07:57:18.986Z,1.90
2019-02-02T07:59:52.197Z,1.90
2019-02-02T08:02:24.291Z,2.00
2019-02-02T08:04:53.979Z,2.10
2019-02-02T08:09:56.316Z,2.20
2019-02-02T08:12:26.485Z,2.20
2019-02-02T08:15:02.024Z,2.30
2019-02-02T08:17:32.359Z,2.40
2019-02-02T08:20:07.155Z,2.50
2019-02-02T08:22:36.954Z,2.50
2019-02-02T08:25:07.256Z,2.50
2019-02-02T08:27:36.926Z,2.60
2019-02-02T08:30:16.605Z,2.60
2019-02-02T08:32:46.944Z,2.80
2019-02-02T08:35:16.853Z,2.30
2019-02-02T08:37:46.642Z,2.80
2019-02-02T08:40:16.831Z,2.90
2019-02-02T08:42:49.506Z,3.00
2019-02-02T08:45:19.323Z,3.00
2019-02-02T08:47:49.007Z,3.00
2019-02-02T08:50:26.889Z,3.00
2019-02-02T08:52:57.035Z,3.00
2019-02-02T08:55:26.764Z,3.10
2019-02-02T08:57:56.508Z,3.20
2019-02-02T09:00:27.809Z,3.20
2019-02-02T09:02:57.683Z,3.30
2019-02-02T09:05:30.223Z,3.40
2019-02-02T09:07:59.928Z,3.40
2019-02-02T09:10:30.906Z,3.50
2019-02-02T09:13:00.974Z,3.70
2019-02-02T09:20:39.184Z,3.90
2019-02-02T09:23:08.887Z,4.00
2019-02-02T09:25:38.992Z,3.50
2019-02-02T09:28:08.728Z,4.10
2019-02-02T09:30:41.951Z,4.00
2019-02-02T09:33:11.949Z,4.00
2019-02-02T09:35:46.296Z,3.90
2019-02-02T09:38:15.983Z,4.00
2019-02-02T09:40:47.429Z,3.90
2019-02-02T09:45:51.936Z,3.70
2019-02-02T09:48:23.045Z,3.50
2019-02-02T09:50:54.379Z,3.50
2019-02-02T09:55:59.068Z,3.30
2019-02-02T09:58:29.752Z,3.30
2019-02-02T10:01:03.866Z,3.50
2019-02-02T10:03:33.599Z,3.20
2019-02-02T10:06:04.159Z,3.10
2019-02-02T10:08:33.841Z,3.10
2019-02-02T10:11:10.333Z,3.00
2019-02-02T10:13:40.399Z,3.10
2019-02-02T10:16:13.092Z,3.10
2019-02-02T10:18:42.818Z,3.10
2019-02-02T10:21:14.004Z,2.90
2019-02-02T10:28:47.038Z,3.10
2019-02-02T10:31:19.977Z,3.10
2019-02-02T10:33:49.709Z,3.20
2019-02-02T10:36:20.884Z,3.10
2019-02-02T10:41:24.758Z,3.10
2019-02-02T10:43:54.456Z,2.90
2019-02-02T10:46:27.463Z,2.80
2019-02-02T10:51:29.059Z,3.10
2019-02-02T10:56:34.128Z,2.70
2019-02-02T10:59:04.244Z,2.80
2019-02-02T11:01:35.163Z,2.80
2019-02-02T11:04:05.370Z,2.80
2019-02-02T11:06:38.272Z,1.70
2019-02-02T11:09:09.925Z,2.70
2019-02-02T11:11:39.813Z,3.10
2019-02-02T11:14:09.581Z,2.80
2019-02-02T11:16:45.441Z,2.80
2019-02-02T11:19:15.703Z,2.90
2019-02-02T11:21:46.601Z,2.80
2019-02-02T11:29:19.818Z,2.60
2019-02-02T11:32:02.187Z,2.70
2019-02-02T11:34:22.754Z,2.60
2019-02-02T11:36:55.506Z,2.50
2019-02-02T11:39:26.941Z,2.50
2019-02-02T11:41:59.842Z,2.40
2019-02-02T11:47:01.591Z,2.30
2019-02-02T11:49:31.753Z,2.40
2019-02-02T11:52:04.547Z,2.30
2019-02-02T11:54:34.359Z,2.20
2019-02-02T11:57:07.967Z,2.20
2019-02-02T12:02:14.439Z,2.20
2019-02-02T12:04:44.512Z,2.10
2019-02-02T12:07:14.220Z,2.20
2019-02-02T12:12:16.519Z,2.00
2019-02-02T12:14:46.314Z,3.10
2019-02-02T12:17:19.220Z,2.00
2019-02-02T12:24:50.107Z,2.10
2019-02-02T12:27:25.911Z,2.00
2019-02-02T12:29:57.903Z,2.10
2019-02-02T12:32:27.390Z,3.10
2019-02-02T12:40:05.748Z,2.10
2019-02-02T12:42:35.759Z,2.10
2019-02-02T12:45:06.600Z,2.10
2019-02-02T12:47:36.312Z,2.00
2019-02-02T12:50:07.024Z,2.00
2019-02-02T12:52:36.849Z,2.10
2019-02-02T12:55:07.256Z,2.10
2019-02-02T12:57:40.292Z,2.20
2019-02-02T13:00:13.748Z,2.20
2019-02-02T13:02:43.633Z,2.10
2019-02-02T13:05:13.980Z,2.10
2019-02-02T13:10:20.319Z,2.10
2019-02-02T13:12:50.024Z,2.20
2019-02-02T13:15:19.707Z,2.30
2019-02-02T13:17:53.540Z,2.20
2019-02-02T13:20:23.290Z,2.10
2019-02-02T13:22:56.248Z,2.10
2019-02-02T13:27:58.687Z,2.10
2019-02-02T13:38:07.964Z,1.80
2019-02-02T13:40:38.358Z,1.70
2019-02-02T13:43:09.502Z,1.80
2019-02-02T13:48:12.931Z,1.90
2019-02-02T13:50:42.689Z,1.90
2019-02-02T13:53:15.163Z,1.60
2019-02-02T13:58:21.437Z,1.80
2019-02-02T14:00:51.444Z,1.80
2019-02-02T14:05:50.315Z,1.80
2019-02-02T14:08:23.897Z,1.80
2019-02-02T14:13:27.917Z,1.60
2019-02-02T14:15:57.904Z,1.70
2019-02-02T14:20:57.466Z,1.80
2019-02-02T14:28:36.467Z,1.60
2019-02-02T14:31:06.552Z,1.60
2019-02-02T14:33:37.571Z,1.60
2019-02-02T14:38:39.363Z,1.50
2019-02-02T14:41:09.184Z,1.50
2019-02-02T14:46:11.418Z,1.30
2019-02-02T14:53:49.866Z,1.20
2019-02-02T14:56:19.885Z,1.30
2019-02-02T14:58:52.652Z,1.30
2019-02-02T15:01:22.383Z,1.20
2019-02-02T15:03:54.573Z,1.30
2019-02-02T15:06:24.287Z,1.20
2019-02-02T15:11:26.162Z,1.20
2019-02-02T15:16:32.990Z,1.10
2019-02-02T15:19:04.695Z,1.20
2019-02-02T15:24:10.091Z,1.10
2019-02-02T15:36:43.090Z,1.00
2019-02-02T15:39:16.098Z,1.00
2019-02-02T15:41:53.009Z,0.90
2019-02-02T15:44:18.263Z,2.10
2019-02-02T15:49:22.104Z,0.90
2019-02-02T15:51:51.804Z,0.90
2019-02-02T15:56:52.690Z,1.00
2019-02-02T15:59:26.107Z,0.90
2019-02-02T16:01:55.849Z,1.00
2019-02-02T16:06:59.729Z,0.90
2019-02-02T16:09:32.268Z,1.00
2019-02-02T16:12:01.984Z,0.90
2019-02-02T16:14:34.063Z,1.00
2019-02-02T16:17:04.328Z,1.00
2019-02-02T16:22:06.273Z,0.90
2019-02-02T16:24:38.869Z,0.80
2019-02-02T16:27:08.603Z,2.00
2019-02-02T16:29:41.995Z,0.80
2019-02-02T16:32:11.692Z,0.80
2019-02-02T16:34:46.031Z,0.80
2019-02-02T16:37:16.011Z,0.80
2019-02-02T16:39:48.592Z,0.80
2019-02-02T16:42:18.276Z,0.80
2019-02-02T16:49:53.301Z,0.80
2019-02-02T16:52:22.982Z,0.80
2019-02-02T16:57:25.663Z,0.80
2019-02-02T17:00:01.707Z,0.70
2019-02-02T17:02:31.385Z,0.80
2019-02-02T17:05:04.595Z,0.80
2019-02-02T17:07:34.584Z,0.80
2019-02-02T17:10:10.711Z,1.80
2019-02-02T17:12:40.456Z,0.70
2019-02-02T17:15:10.733Z,0.80
2019-02-02T17:22:43.524Z,0.80
2019-02-02T17:25:17.351Z,0.80
2019-02-02T17:27:47.811Z,0.80
2019-02-02T17:30:21.973Z,0.80
2019-02-02T17:32:52.647Z,0.80
2019-02-02T17:35:22.351Z,0.00
2019-02-02T17:37:52.085Z,0.70
2019-02-02T17:40:24.565Z,0.70
2019-02-02T17:42:54.368Z,0.70
2019-02-02T17:45:26.908Z,0.60
2019-02-02T17:50:29.163Z,1.20
2019-02-02T17:52:59.000Z,0.70
2019-02-02T17:55:31.160Z,0.70
2019-02-02T17:58:02.635Z,0.70
2019-02-02T18:00:42.379Z,0.70
2019-02-02T18:03:12.194Z,1.70
2019-02-02T18:05:42.287Z,0.70
2019-02-02T18:10:41.040Z,0.70
2019-02-02T18:15:43.241Z,1.90
2019-02-02T18:18:12.955Z,0.80
2019-02-02T18:20:44.108Z,0.70
2019-02-02T18:23:13.831Z,0.80
2019-02-02T18:25:49.525Z,0.80
2019-02-02T18:28:19.497Z,0.70
2019-02-02T18:33:19.856Z,0.10
2019-02-02T18:35:54.396Z,0.70
2019-02-02T18:41:00.304Z,0.70
2019-02-02T18:43:30.403Z,0.70
2019-02-02T18:48:29.211Z,0.60
2019-02-02T18:51:06.934Z,0.60
2019-02-02T18:53:36.667Z,0.50
2019-02-02T19:01:09.783Z,0.60
2019-02-02T19:06:15.322Z,0.50
2019-02-02T19:08:45.041Z,0.50
2019-02-02T19:11:15.408Z,0.60
2019-02-02T19:16:19.975Z,0.50
2019-02-02T19:18:49.986Z,0.50
2019-02-02T19:21:21.376Z,1.30
2019-02-02T19:23:51.095Z,0.60
2019-02-02T19:28:52.667Z,0.60
2019-02-02T19:31:26.431Z,0.60
2019-02-02T19:33:56.114Z,0.60
2019-02-02T19:38:58.303Z,0.70
2019-02-02T19:41:31.023Z,0.70
2019-02-02T19:46:35.648Z,0.70
2019-02-02T19:49:05.583Z,0.70
2019-02-02T19:51:38.446Z,1.80
2019-02-02T19:56:40.874Z,0.80
2019-02-02T20:01:42.761Z,1.90
2019-02-02T20:04:12.795Z,0.80
2019-02-02T20:06:42.557Z,0.70
2019-02-02T20:11:48.470Z,0.70
2019-02-02T20:14:18.199Z,0.80
2019-02-02T20:16:50.168Z,0.70
2019-02-02T20:24:24.889Z,0.70
2019-02-02T20:26:59.004Z,0.70
2019-02-02T20:29:28.738Z,0.70
2019-02-02T20:32:01.250Z,0.70
2019-02-02T20:34:31.261Z,0.70
2019-02-02T20:44:39.438Z,0.70
2019-02-02T20:47:13.201Z,0.70
2019-02-02T20:52:16.056Z,0.80
2019-02-02T20:54:47.874Z,0.80
2019-02-02T20:57:17.932Z,0.80
2019-02-02T20:59:49.003Z,0.80
2019-02-02T21:02:20.687Z,0.80
2019-02-02T21:04:50.811Z,0.90
2019-02-02T21:07:23.571Z,0.90
2019-02-02T21:09:53.295Z,0.90
2019-02-02T21:12:27.392Z,0.30
2019-02-02T21:14:57.263Z,0.80
2019-02-02T21:22:31.141Z,0.90
2019-02-02T21:25:03.449Z,-0.30
2019-02-02T21:27:33.396Z,0.80
2019-02-02T21:30:03.385Z,0.90
2019-02-02T21:32:38.107Z,0.90
2019-02-02T21:37:39.231Z,0.90
2019-02-02T21:40:11.963Z,0.90
2019-02-02T21:45:12.459Z,0.90
2019-02-02T21:47:44.964Z,0.90
2019-02-02T21:52:48.993Z,0.90
2019-02-02T21:55:22.132Z,0.80
2019-02-02T21:57:55.248Z,0.90
2019-02-02T22:03:00.152Z,0.90
2019-02-02T22:05:29.943Z,0.80
2019-02-02T22:07:59.666Z,0.80
2019-02-02T22:13:00.048Z,0.80
2019-02-02T22:15:30.715Z,0.80
2019-02-02T22:18:03.480Z,0.80
2019-02-02T22:23:06.530Z,0.50
2019-02-02T22:25:36.229Z,0.90
2019-02-02T22:28:09.324Z,0.80
2019-02-02T22:30:39.621Z,0.70
2019-02-02T22:33:13.535Z,0.80
2019-02-02T22:35:43.831Z,0.80
2019-02-02T22:38:17.071Z,0.80
2019-02-02T22:48:21.583Z,0.80
2019-02-02T22:50:51.722Z,1.60
2019-02-02T22:53:25.241Z,0.90
2019-02-02T22:55:55.336Z,0.80
2019-02-02T22:58:28.092Z,1.00
2019-02-02T23:01:25.843Z,1.00
2019-02-02T23:04:28.715Z,1.00
2019-02-02T23:07:16.572Z,0.90
2019-02-02T23:10:20.927Z,1.00
2019-02-02T23:13:01.135Z,0.90
2019-02-02T23:16:04.094Z,0.90
2019-02-02T23:18:38.551Z,1.00
2019-02-02T23:21:09.488Z,1.00
2019-02-02T23:23:39.753Z,1.00
2019-02-02T23:28:43.427Z,1.00
2019-02-02T23:31:16.094Z,1.00
2019-02-02T23:38:49.221Z,1.00
2019-02-02T23:43:51.624Z,1.00
2019-02-02T23:46:21.426Z,1.00
2019-02-02T23:48:57.282Z,1.00
2019-02-02T23:51:27.187Z,1.00
2019-02-02T23:56:33.184Z,1.10
2019-02-02T23:59:08.558Z,1.10
